createdAt,value
2018-03-06T00:00:07.194Z,40.13
2018-03-06T00:02:34.601Z,37.90
2018-03-06T00:05:02.047Z,43.43
2018-03-06T00:07:30.226Z,41.40
2018-03-06T00:09:57.649Z,37.83
2018-03-06T00:12:25.105Z,35.37
2018-03-06T00:14:52.564Z,37.30
2018-03-06T00:17:20.001Z,37.67
2018-03-06T00:19:48.193Z,37.97
2018-03-06T00:22:15.730Z,40.60
2018-03-06T00:24:43.174Z,37.22
2018-03-06T00:27:10.582Z,35.27
2018-03-06T00:29:39.695Z,42.47
2018-03-06T00:32:07.919Z,41.33
2018-03-06T00:34:35.358Z,39.15
2018-03-06T00:37:03.606Z,37.93
2018-03-06T00:39:31.058Z,42.27
2018-03-06T00:41:58.508Z,47.75
2018-03-06T00:44:26.009Z,39.23
2018-03-06T00:46:54.142Z,38.27
2018-03-06T00:49:21.571Z,49.15
2018-03-06T00:51:49.028Z,44.50
2018-03-06T00:54:16.456Z,42.10
2018-03-06T00:56:43.870Z,44.23
2018-03-06T00:59:11.281Z,44.83
2018-03-06T01:01:40.409Z,44.10
2018-03-06T01:04:07.814Z,41.55
2018-03-06T01:06:35.261Z,42.67
2018-03-06T01:09:02.674Z,44.00
2018-03-06T01:11:30.104Z,45.40
2018-03-06T01:13:57.513Z,74.00
2018-03-06T01:16:25.023Z,213.13
2018-03-06T01:18:52.453Z,49.83
2018-03-06T01:21:19.958Z,45.03
2018-03-06T01:23:47.378Z,41.27
2018-03-06T01:26:14.811Z,50.97
2018-03-06T01:28:42.222Z,45.72
2018-03-06T01:31:11.038Z,47.77
2018-03-06T01:33:39.266Z,47.00
2018-03-06T01:36:06.679Z,44.30
2018-03-06T01:38:34.082Z,42.80
2018-03-06T01:41:01.498Z,45.97
2018-03-06T01:43:28.946Z,42.30
2018-03-06T01:45:56.358Z,50.83
2018-03-06T01:48:23.758Z,48.97
2018-03-06T01:50:51.234Z,51.10
2018-03-06T01:53:18.649Z,47.20
2018-03-06T01:55:46.088Z,48.87
2018-03-06T01:58:13.495Z,56.53
2018-03-06T02:00:40.950Z,50.70
2018-03-06T02:03:08.398Z,52.13
2018-03-06T02:05:35.816Z,60.75
2018-03-06T02:08:04.021Z,55.47
2018-03-06T02:10:32.198Z,61.50
2018-03-06T02:13:00.382Z,60.00
2018-03-06T02:15:28.549Z,66.00
2018-03-06T02:17:56.734Z,53.30
2018-03-06T02:20:24.151Z,58.28
2018-03-06T02:22:51.759Z,57.10
2018-03-06T02:25:19.186Z,53.38
2018-03-06T02:27:46.637Z,55.83
2018-03-06T02:30:14.068Z,60.90
2018-03-06T02:32:41.606Z,61.83
2018-03-06T02:35:09.057Z,55.07
2018-03-06T02:37:36.496Z,58.40
2018-03-06T02:40:04.662Z,53.63
2018-03-06T02:42:32.246Z,54.83
2018-03-06T02:44:59.759Z,54.50
2018-03-06T02:47:27.194Z,58.37
2018-03-06T02:49:54.625Z,62.50
2018-03-06T02:52:22.046Z,64.57
2018-03-06T02:54:50.226Z,65.20
2018-03-06T02:57:18.458Z,61.27
2018-03-06T02:59:45.910Z,64.05
2018-03-06T03:02:13.334Z,66.77
2018-03-06T03:04:40.742Z,82.00
2018-03-06T03:07:08.208Z,72.50
2018-03-06T03:09:36.393Z,73.50
2018-03-06T03:12:03.810Z,74.33
2018-03-06T03:14:31.235Z,79.57
2018-03-06T03:16:58.650Z,86.53
2018-03-06T03:19:26.090Z,74.90
2018-03-06T03:21:53.510Z,86.83
2018-03-06T03:24:21.694Z,77.03
2018-03-06T03:26:49.890Z,83.73
2018-03-06T03:29:18.109Z,75.00
2018-03-06T03:31:45.527Z,89.57
2018-03-06T03:34:13.034Z,78.40
2018-03-06T03:36:40.442Z,85.77
2018-03-06T03:39:07.867Z,71.60
2018-03-06T03:41:35.342Z,77.23
2018-03-06T03:44:02.806Z,73.27
2018-03-06T03:46:30.218Z,86.23
2018-03-06T03:48:57.748Z,94.22
2018-03-06T03:51:25.172Z,100.83
2018-03-06T03:53:53.366Z,86.75
2018-03-06T03:56:21.550Z,89.63
2018-03-06T03:58:48.996Z,132.47
2018-03-06T04:01:16.444Z,105.03
2018-03-06T04:03:43.866Z,100.20
2018-03-06T04:06:12.983Z,105.17
2018-03-06T04:08:40.412Z,88.53
2018-03-06T04:11:07.827Z,104.23
2018-03-06T04:13:35.237Z,113.80
2018-03-06T04:16:02.759Z,110.97
2018-03-06T04:18:30.184Z,127.70
2018-03-06T04:20:57.605Z,146.13
2018-03-06T04:23:25.090Z,131.97
2018-03-06T04:25:52.793Z,131.30
2018-03-06T04:28:20.328Z,133.32
2018-03-06T04:30:47.816Z,141.43
2018-03-06T04:33:15.269Z,161.50
2018-03-06T04:35:44.262Z,151.20
2018-03-06T04:38:11.680Z,143.93
2018-03-06T04:40:39.193Z,154.27
2018-03-06T04:43:06.610Z,176.82
2018-03-06T04:45:34.044Z,163.30
2018-03-06T04:48:01.466Z,150.55
2018-03-06T04:50:28.977Z,174.57
2018-03-06T04:52:56.393Z,165.33
2018-03-06T04:55:23.814Z,168.50
2018-03-06T04:57:51.279Z,165.73
2018-03-06T05:00:18.734Z,158.83
2018-03-06T05:02:46.973Z,155.33
2018-03-06T05:05:14.385Z,167.60
2018-03-06T05:07:41.824Z,165.77
2018-03-06T05:10:09.331Z,138.20
2018-03-06T05:12:36.746Z,177.50
2018-03-06T05:15:04.166Z,178.93
2018-03-06T05:17:31.600Z,163.57
2018-03-06T05:19:59.011Z,180.50
2018-03-06T05:22:26.434Z,166.80
2018-03-06T05:24:53.958Z,172.90
2018-03-06T05:27:21.430Z,176.67
2018-03-06T05:29:48.846Z,193.37
2018-03-06T05:32:16.278Z,146.77
2018-03-06T05:34:45.165Z,197.45
2018-03-06T05:37:12.589Z,194.37
2018-03-06T05:39:40.003Z,186.90
2018-03-06T05:42:07.481Z,178.82
2018-03-06T05:44:34.925Z,215.77
2018-03-06T05:47:02.366Z,203.77
2018-03-06T05:49:29.777Z,202.17
2018-03-06T05:51:57.251Z,196.80
2018-03-06T05:54:24.694Z,201.95
2018-03-06T05:56:52.111Z,210.67
2018-03-06T05:59:19.549Z,197.83
2018-03-06T06:01:47.020Z,203.77
2018-03-06T06:04:15.755Z,217.68
2018-03-06T06:06:43.283Z,206.43
2018-03-06T06:09:10.765Z,225.30
2018-03-06T06:11:38.181Z,213.57
2018-03-06T06:14:05.598Z,149.50
2018-03-06T06:16:33.057Z,173.60
2018-03-06T06:19:01.232Z,203.90
2018-03-06T06:21:28.713Z,197.17
2018-03-06T06:23:56.877Z,156.65
2018-03-06T06:26:25.069Z,168.40
2018-03-06T06:28:53.385Z,217.77
2018-03-06T06:31:20.794Z,214.37
2018-03-06T06:33:48.244Z,215.27
2018-03-06T06:36:15.795Z,176.80
2018-03-06T06:38:43.346Z,228.33
2018-03-06T06:41:10.818Z,214.47
2018-03-06T06:43:38.238Z,185.37
2018-03-06T06:46:06.429Z,182.07
2018-03-06T06:48:33.938Z,195.73
2018-03-06T06:51:01.354Z,219.13
2018-03-06T06:53:28.782Z,228.23
2018-03-06T06:55:56.248Z,228.67
2018-03-06T06:58:24.438Z,161.70
2018-03-06T07:00:51.877Z,204.50
2018-03-06T07:03:20.066Z,185.60
2018-03-06T07:05:48.270Z,227.13
2018-03-06T07:08:16.784Z,162.60
2018-03-06T07:10:44.246Z,230.70
2018-03-06T07:13:11.675Z,218.90
2018-03-06T07:15:39.076Z,241.93
2018-03-06T07:18:06.482Z,219.90
2018-03-06T07:20:34.425Z,153.80
2018-03-06T07:23:01.848Z,210.67
2018-03-06T07:25:29.280Z,237.65
2018-03-06T07:27:56.706Z,168.57
2018-03-06T07:30:24.901Z,238.07
2018-03-06T07:32:52.396Z,242.27
2018-03-06T07:35:19.966Z,212.37
2018-03-06T07:37:47.374Z,187.23
2018-03-06T07:40:14.994Z,226.97
2018-03-06T07:42:43.158Z,222.20
2018-03-06T07:45:11.457Z,220.98
2018-03-06T07:47:38.889Z,217.97
2018-03-06T07:50:06.293Z,193.77
2018-03-06T07:52:33.876Z,216.68
2018-03-06T07:55:02.034Z,214.03
2018-03-06T07:57:30.232Z,190.20
2018-03-06T07:59:58.537Z,213.17
2018-03-06T08:02:26.708Z,216.07
2018-03-06T08:04:54.921Z,210.53
2018-03-06T08:07:22.337Z,210.40
2018-03-06T08:09:51.254Z,206.77
2018-03-06T08:12:19.446Z,228.97
2018-03-06T08:14:47.179Z,224.70
2018-03-06T08:17:14.617Z,214.83
2018-03-06T08:19:42.187Z,204.63
2018-03-06T08:22:10.366Z,222.27
2018-03-06T08:24:37.790Z,204.17
2018-03-06T08:27:05.214Z,218.50
2018-03-06T08:29:32.630Z,225.18
2018-03-06T08:32:00.078Z,215.40
2018-03-06T08:37:00.469Z,208.83
2018-03-06T08:39:28.105Z,228.10
2018-03-06T08:41:55.530Z,205.57
2018-03-06T08:44:23.725Z,207.87
2018-03-06T08:46:51.210Z,216.80
2018-03-06T08:49:19.378Z,218.70
2018-03-06T08:51:47.780Z,212.55
2018-03-06T08:54:16.011Z,193.40
2018-03-06T08:56:43.547Z,154.70
2018-03-06T08:59:11.009Z,209.57
2018-03-06T09:01:38.422Z,207.63
2018-03-06T09:04:05.847Z,219.93
2018-03-06T09:06:33.262Z,175.57
2018-03-06T09:09:00.682Z,187.97
2018-03-06T09:11:28.118Z,196.75
2018-03-06T09:13:56.308Z,157.97
2018-03-06T09:16:24.534Z,196.47
2018-03-06T09:18:51.991Z,210.83
2018-03-06T09:21:19.414Z,217.87
2018-03-06T09:23:46.938Z,196.63
2018-03-06T09:26:14.352Z,197.25
2018-03-06T09:28:43.661Z,208.97
2018-03-06T09:31:11.187Z,198.43
2018-03-06T09:33:38.618Z,207.90
2018-03-06T09:36:06.797Z,204.13
2018-03-06T09:38:35.046Z,196.73
2018-03-06T09:41:02.468Z,200.33
2018-03-06T09:43:30.755Z,222.87
2018-03-06T09:45:58.964Z,157.20
2018-03-06T09:48:26.365Z,193.10
2018-03-06T09:50:53.791Z,195.05
2018-03-06T09:53:21.298Z,161.50
2018-03-06T09:55:49.769Z,192.23
2018-03-06T09:58:17.186Z,193.80
2018-03-06T10:00:44.703Z,185.70
2018-03-06T10:03:12.126Z,207.70
2018-03-06T10:05:40.395Z,192.10
2018-03-06T10:08:07.845Z,176.40
2018-03-06T10:10:35.329Z,163.73
2018-03-06T10:13:02.768Z,186.73
2018-03-06T10:15:30.206Z,187.83
2018-03-06T10:17:58.449Z,202.83
2018-03-06T10:20:25.890Z,194.80
2018-03-06T10:22:53.396Z,186.17
2018-03-06T10:25:20.862Z,185.70
2018-03-06T10:27:48.451Z,194.53
2018-03-06T10:30:16.038Z,182.50
2018-03-06T10:32:43.639Z,187.10
2018-03-06T10:35:11.830Z,177.47
2018-03-06T10:37:39.270Z,178.33
2018-03-06T10:40:07.494Z,171.82
2018-03-06T10:42:34.930Z,184.00
2018-03-06T10:45:03.191Z,195.47
2018-03-06T10:47:30.635Z,177.57
2018-03-06T10:49:58.084Z,180.87
2018-03-06T10:52:25.558Z,172.70
2018-03-06T10:54:53.038Z,190.53
2018-03-06T10:57:20.511Z,184.03
2018-03-06T10:59:47.999Z,180.47
2018-03-06T11:02:15.429Z,187.90
2018-03-06T11:04:42.875Z,179.33
2018-03-06T11:07:10.296Z,199.83
2018-03-06T11:09:37.850Z,175.80
2018-03-06T11:12:05.261Z,175.25
2018-03-06T11:14:33.461Z,156.13
2018-03-06T11:17:01.635Z,157.77
2018-03-06T11:19:29.823Z,195.90
2018-03-06T11:21:58.036Z,179.40
2018-03-06T11:24:25.441Z,165.03
2018-03-06T11:26:52.863Z,181.57
2018-03-06T11:29:20.815Z,157.23
2018-03-06T11:31:48.350Z,167.50
2018-03-06T11:34:15.896Z,171.70
2018-03-06T11:36:44.086Z,147.67
2018-03-06T11:39:11.537Z,173.13
2018-03-06T11:41:39.014Z,186.83
2018-03-06T11:44:06.493Z,154.93
2018-03-06T11:46:33.911Z,169.68
2018-03-06T11:49:01.480Z,162.37
2018-03-06T11:51:28.882Z,172.50
2018-03-06T11:53:56.368Z,172.60
2018-03-06T11:56:23.798Z,189.13
2018-03-06T11:58:52.098Z,178.25
2018-03-06T12:01:21.206Z,173.90
2018-03-06T12:03:49.410Z,162.13
2018-03-06T12:06:16.838Z,175.93
2018-03-06T12:08:44.274Z,172.63
2018-03-06T12:11:11.678Z,161.83
2018-03-06T12:13:39.201Z,169.03
2018-03-06T12:16:06.623Z,161.30
2018-03-06T12:18:34.866Z,156.63
2018-03-06T12:21:02.270Z,166.10
2018-03-06T12:23:29.778Z,175.47
2018-03-06T12:25:57.204Z,156.60
2018-03-06T12:28:24.718Z,158.50
2018-03-06T12:30:52.187Z,176.80
2018-03-06T12:33:19.656Z,157.97
2018-03-06T12:35:47.075Z,165.40
2018-03-06T12:38:14.502Z,162.00
2018-03-06T12:40:41.910Z,151.03
2018-03-06T12:43:09.443Z,164.10
2018-03-06T12:45:36.896Z,157.50
2018-03-06T12:48:05.081Z,167.47
2018-03-06T12:50:32.553Z,163.73
2018-03-06T12:53:00.718Z,153.37
2018-03-06T12:55:28.917Z,154.60
2018-03-06T12:57:56.500Z,162.62
2018-03-06T13:00:24.674Z,159.90
2018-03-06T13:02:53.484Z,157.50
2018-03-06T13:05:22.569Z,163.00
2018-03-06T13:07:50.775Z,160.83
2018-03-06T13:10:18.202Z,158.40
2018-03-06T13:12:45.759Z,170.20
2018-03-06T13:15:13.186Z,158.97
2018-03-06T13:17:40.606Z,180.80
2018-03-06T13:20:08.034Z,164.15
2018-03-06T13:22:35.450Z,170.07
2018-03-06T13:25:02.873Z,179.77
2018-03-06T13:27:30.290Z,166.93
2018-03-06T13:29:58.514Z,163.83
2018-03-06T13:32:25.946Z,146.23
2018-03-06T13:34:54.138Z,146.10
2018-03-06T13:37:23.295Z,170.27
2018-03-06T13:39:50.907Z,168.13
2018-03-06T13:42:18.266Z,165.40
2018-03-06T13:44:45.684Z,160.33
2018-03-06T13:47:13.103Z,159.93
2018-03-06T13:49:40.537Z,165.40
2018-03-06T13:52:08.016Z,159.17
2018-03-06T13:54:36.150Z,173.30
2018-03-06T13:57:04.342Z,161.43
2018-03-06T13:59:32.539Z,157.13
2018-03-06T14:02:00.120Z,169.57
2018-03-06T14:04:28.404Z,160.90
2018-03-06T14:06:56.581Z,181.93
2018-03-06T14:09:24.057Z,168.70
2018-03-06T14:11:52.228Z,184.03
2018-03-06T14:14:20.411Z,176.57
2018-03-06T14:16:48.611Z,172.23
2018-03-06T14:19:16.124Z,170.03
2018-03-06T14:21:43.552Z,162.60
2018-03-06T14:24:10.954Z,166.73
2018-03-06T14:26:38.462Z,174.20
2018-03-06T14:29:05.874Z,174.50
2018-03-06T14:31:34.063Z,171.90
2018-03-06T14:34:02.255Z,171.60
2018-03-06T14:36:30.453Z,173.23
2018-03-06T14:38:58.646Z,179.03
2018-03-06T14:41:26.094Z,165.50
2018-03-06T14:43:54.998Z,173.07
2018-03-06T14:46:24.108Z,182.57
2018-03-06T14:48:52.283Z,175.37
2018-03-06T14:51:20.504Z,172.37
2018-03-06T14:53:48.678Z,158.27
2018-03-06T14:56:16.170Z,177.30
2018-03-06T14:58:43.602Z,175.60
2018-03-06T15:01:11.809Z,178.90
2018-03-06T15:03:39.213Z,191.83
2018-03-06T15:06:06.654Z,176.83
2018-03-06T15:08:34.106Z,186.30
2018-03-06T15:11:02.297Z,186.80
2018-03-06T15:13:29.719Z,186.03
2018-03-06T15:15:57.155Z,196.47
2018-03-06T15:18:25.527Z,178.50
2018-03-06T15:20:54.638Z,189.57
2018-03-06T15:23:23.101Z,181.30
2018-03-06T15:25:51.351Z,176.67
2018-03-06T15:28:18.784Z,183.53
2018-03-06T15:30:46.205Z,194.13
2018-03-06T15:33:13.654Z,201.40
2018-03-06T15:35:41.086Z,196.83
2018-03-06T15:38:08.573Z,189.67
2018-03-06T15:40:36.014Z,175.40
2018-03-06T15:43:04.211Z,183.23
2018-03-06T15:45:31.762Z,192.67
2018-03-06T15:47:59.178Z,193.83
2018-03-06T15:50:26.731Z,184.63
2018-03-06T15:52:55.828Z,191.70
2018-03-06T15:55:23.251Z,190.87
2018-03-06T15:57:50.686Z,195.70
2018-03-06T16:00:18.146Z,189.63
2018-03-06T16:02:45.717Z,194.53
2018-03-06T16:05:14.007Z,192.67
2018-03-06T16:07:42.178Z,193.03
2018-03-06T16:10:09.638Z,196.87
2018-03-06T16:12:37.838Z,204.23
2018-03-06T16:15:06.155Z,198.47
2018-03-06T16:17:33.621Z,190.20
2018-03-06T16:20:01.045Z,198.27
2018-03-06T16:22:28.458Z,202.63
2018-03-06T16:24:55.893Z,197.87
2018-03-06T16:27:23.328Z,200.47
2018-03-06T16:29:50.754Z,194.57
2018-03-06T16:32:18.313Z,199.87
2018-03-06T16:34:46.481Z,200.63
2018-03-06T16:37:13.897Z,208.50
2018-03-06T16:39:41.352Z,195.47
2018-03-06T16:42:08.784Z,197.25
2018-03-06T16:44:36.247Z,194.15
2018-03-06T16:47:04.454Z,181.47
2018-03-06T16:49:31.900Z,182.87
2018-03-06T16:52:00.116Z,187.83
2018-03-06T16:54:27.538Z,187.70
2018-03-06T16:56:55.004Z,184.07
2018-03-06T16:59:22.518Z,180.57
2018-03-06T17:01:49.930Z,195.30
2018-03-06T17:04:20.181Z,194.57
2018-03-06T17:06:47.706Z,206.10
2018-03-06T17:09:15.143Z,176.20
2018-03-06T17:11:42.574Z,172.62
2018-03-06T17:14:09.992Z,182.02
2018-03-06T17:16:38.200Z,188.30
2018-03-06T17:19:05.634Z,187.17
2018-03-06T17:21:33.142Z,190.07
2018-03-06T17:24:00.575Z,192.63
2018-03-06T17:26:28.781Z,187.87
2018-03-06T17:28:57.666Z,189.07
2018-03-06T17:31:25.087Z,204.80
2018-03-06T17:33:52.530Z,178.13
2018-03-06T17:36:19.971Z,216.33
2018-03-06T17:38:48.211Z,216.70
2018-03-06T17:41:15.673Z,189.83
2018-03-06T17:43:43.207Z,198.07
2018-03-06T17:46:10.660Z,191.97
2018-03-06T17:48:38.116Z,194.33
2018-03-06T17:51:05.542Z,193.43
2018-03-06T17:53:33.038Z,183.90
2018-03-06T17:56:00.568Z,168.63
2018-03-06T17:58:28.012Z,176.07
2018-03-06T18:00:56.202Z,182.07
2018-03-06T18:03:23.657Z,168.87
2018-03-06T18:05:51.882Z,175.20
2018-03-06T18:08:19.336Z,175.43
2018-03-06T18:10:46.824Z,171.20
2018-03-06T18:13:14.263Z,174.93
2018-03-06T18:15:41.757Z,183.23
2018-03-06T18:18:09.177Z,186.50
2018-03-06T18:20:36.609Z,155.17
2018-03-06T18:23:04.062Z,156.60
2018-03-06T18:25:31.509Z,180.83
2018-03-06T18:27:59.684Z,176.23
2018-03-06T18:30:28.690Z,158.20
2018-03-06T18:32:56.177Z,172.50
2018-03-06T18:35:23.609Z,176.07
2018-03-06T18:37:51.122Z,163.90
2018-03-06T18:40:18.533Z,171.00
2018-03-06T18:42:46.074Z,161.63
2018-03-06T18:45:13.499Z,177.67
2018-03-06T18:47:41.019Z,171.60
2018-03-06T18:53:10.863Z,178.38
2018-03-06T18:55:38.318Z,177.35
2018-03-06T18:58:05.762Z,178.20
2018-03-06T19:03:50.516Z,174.07
2018-03-06T19:06:23.619Z,180.23
2018-03-06T19:08:51.029Z,171.90
2018-03-06T19:11:18.467Z,180.50
2018-03-06T19:13:45.870Z,177.83
2018-03-06T19:16:13.298Z,174.07
2018-03-06T19:18:40.715Z,162.10
2018-03-06T19:21:08.991Z,155.87
2018-03-06T19:23:36.527Z,167.23
2018-03-06T19:26:03.945Z,163.75
2018-03-06T19:28:32.478Z,166.57
2018-03-06T19:31:00.027Z,178.85
2018-03-06T19:33:27.430Z,187.37
2018-03-06T19:35:54.879Z,175.50
2018-03-06T19:38:22.316Z,181.03
2018-03-06T19:40:51.241Z,188.97
2018-03-06T19:43:18.773Z,173.07
2018-03-06T19:45:46.230Z,179.10
2018-03-06T19:48:13.687Z,186.53
2018-03-06T19:50:41.885Z,179.67
2018-03-06T19:53:09.342Z,176.07
2018-03-06T19:55:36.838Z,180.70
2018-03-06T19:58:04.372Z,183.10
2018-03-06T20:00:31.728Z,187.17
2018-03-06T20:02:59.495Z,164.00
2018-03-06T20:05:26.935Z,177.97
2018-03-06T20:07:54.395Z,175.77
2018-03-06T20:10:21.880Z,171.80
2018-03-06T20:12:49.331Z,183.23
2018-03-06T20:15:17.674Z,171.27
2018-03-06T20:17:45.905Z,175.50
2018-03-06T20:20:13.371Z,203.83
2018-03-06T20:22:40.799Z,180.63
2018-03-06T20:25:14.873Z,187.33
2018-03-06T20:27:43.043Z,195.77
2018-03-06T20:33:15.951Z,181.98
2018-03-06T20:35:43.382Z,186.40
2018-03-06T20:38:11.390Z,178.87
2018-03-06T20:40:39.605Z,181.10
2018-03-06T20:43:07.024Z,191.80
2018-03-06T20:45:40.037Z,192.90
2018-03-06T20:48:07.461Z,180.07
2018-03-06T20:50:34.925Z,193.77
2018-03-06T20:53:07.876Z,194.13
2018-03-06T20:55:36.088Z,178.60
2018-03-06T20:58:03.561Z,186.77
2018-03-06T21:00:31.016Z,170.60
2018-03-06T21:02:59.178Z,192.13
2018-03-06T21:05:27.366Z,186.75
2018-03-06T21:07:55.602Z,180.77
2018-03-06T21:10:23.036Z,203.60
2018-03-06T21:12:51.232Z,193.57
2018-03-06T21:15:18.718Z,189.60
2018-03-06T21:17:46.150Z,184.23
2018-03-06T21:20:14.328Z,190.10
2018-03-06T21:22:41.752Z,199.80
2018-03-06T21:25:09.238Z,185.93
2018-03-06T21:27:36.687Z,186.33
2018-03-06T21:30:04.161Z,190.48
2018-03-06T21:32:31.616Z,185.10
2018-03-06T21:34:59.038Z,191.18
2018-03-06T21:37:26.545Z,189.63
2018-03-06T21:39:54.022Z,202.17
2018-03-06T21:42:22.177Z,195.37
2018-03-06T21:44:50.363Z,189.43
2018-03-06T21:47:18.554Z,183.07
2018-03-06T21:49:46.750Z,183.07
2018-03-06T21:52:14.939Z,195.53
2018-03-06T21:54:43.109Z,178.40
2018-03-06T21:57:11.302Z,187.02
2018-03-06T21:59:39.492Z,186.07
2018-03-06T22:02:07.698Z,186.60
2018-03-06T22:04:35.217Z,178.63
2018-03-06T22:07:02.678Z,184.05
2018-03-06T22:09:30.094Z,187.97
2018-03-06T22:11:57.522Z,192.33
2018-03-06T22:14:24.939Z,180.30
2018-03-06T22:16:52.354Z,186.40
2018-03-06T22:19:21.290Z,186.67
2018-03-06T22:21:49.478Z,190.33
2018-03-06T22:24:16.967Z,189.27
2018-03-06T22:26:44.391Z,204.23
2018-03-06T22:29:13.344Z,195.87
2018-03-06T22:31:40.823Z,185.70
2018-03-06T22:34:08.281Z,197.57
2018-03-06T22:36:35.751Z,192.70
2018-03-06T22:39:03.199Z,189.83
2018-03-06T22:41:30.622Z,189.90
2018-03-06T22:43:58.036Z,200.07
2018-03-06T22:46:25.466Z,203.90
2018-03-06T22:48:52.890Z,206.47
2018-03-06T22:51:20.332Z,193.67
2018-03-06T22:53:48.517Z,188.97
2018-03-06T22:56:16.728Z,187.10
2018-03-06T22:58:44.138Z,187.77
2018-03-06T23:01:11.592Z,185.75
2018-03-06T23:03:39.014Z,198.27
2018-03-06T23:06:07.249Z,195.50
2018-03-06T23:08:34.731Z,183.67
2018-03-06T23:11:03.583Z,178.10
2018-03-06T23:13:31.163Z,186.37
2018-03-06T23:15:59.321Z,195.60
2018-03-06T23:18:27.636Z,182.50
2018-03-06T23:20:55.037Z,202.25
2018-03-06T23:23:22.568Z,193.43
2018-03-06T23:25:50.734Z,202.97
2018-03-06T23:28:18.193Z,210.05
2018-03-06T23:30:45.611Z,196.43
2018-03-06T23:33:13.029Z,189.90
2018-03-06T23:35:41.214Z,180.07
2018-03-06T23:38:09.416Z,206.00
2018-03-06T23:40:37.643Z,189.63
2018-03-06T23:43:05.130Z,192.47
2018-03-06T23:45:33.506Z,203.60
2018-03-06T23:48:00.930Z,207.73
2018-03-06T23:50:28.346Z,191.30
2018-03-06T23:52:55.782Z,184.77
2018-03-06T23:55:23.204Z,205.23
2018-03-06T23:57:50.746Z,193.03
